createdAt,value
2022-10-13T00:00:48.963Z,21.23
2022-10-13T00:03:18.754Z,19.17
2022-10-13T00:05:47.582Z,19.57
2022-10-13T00:08:16.248Z,22.90
2022-10-13T00:10:44.622Z,23.83
2022-10-13T00:13:13.147Z,22.03
2022-10-13T00:15:41.765Z,26.27
2022-10-13T00:18:10.433Z,25.43
2022-10-13T00:20:42.224Z,24.27
2022-10-13T00:23:10.783Z,24.33
2022-10-13T00:25:42.223Z,23.27
2022-10-13T00:28:10.576Z,21.47
2022-10-13T00:30:39.518Z,23.30
2022-10-13T00:33:07.879Z,23.43
2022-10-13T00:35:36.337Z,23.97
2022-10-13T00:38:06.066Z,26.80
2022-10-13T00:40:34.459Z,25.60
2022-10-13T00:43:02.940Z,26.93
2022-10-13T00:45:31.576Z,19.77
2022-10-13T00:48:00.550Z,24.63
2022-10-13T00:50:29.691Z,25.67
2022-10-13T00:52:58.483Z,24.37
2022-10-13T00:55:29.805Z,25.37
2022-10-13T00:58:04.917Z,23.83
2022-10-13T01:00:34.228Z,24.60
2022-10-13T01:03:02.748Z,21.87
2022-10-13T01:05:31.103Z,21.43
2022-10-13T01:07:59.507Z,28.83
2022-10-13T01:10:30.976Z,26.67
2022-10-13T01:13:01.794Z,26.70
2022-10-13T01:15:30.947Z,27.07
2022-10-13T01:18:01.048Z,27.37
2022-10-13T01:20:47.207Z,25.77
2022-10-13T01:23:33.584Z,26.27
2022-10-13T01:26:19.603Z,25.63
2022-10-13T01:28:54.943Z,26.63
2022-10-13T01:31:25.788Z,28.67
2022-10-13T01:33:55.461Z,24.13
2022-10-13T01:36:25.152Z,28.00
2022-10-13T01:38:54.966Z,29.67
2022-10-13T01:41:25.080Z,24.97
2022-10-13T01:43:54.038Z,30.27
2022-10-13T01:46:23.325Z,31.67
2022-10-13T01:48:53.180Z,28.47
2022-10-13T01:51:21.877Z,36.53
2022-10-13T01:53:50.358Z,32.93
2022-10-13T01:56:18.707Z,28.17
2022-10-13T01:58:47.040Z,27.70
2022-10-13T02:01:24.273Z,30.20
2022-10-13T02:03:57.879Z,28.90
2022-10-13T02:06:26.859Z,30.67
2022-10-13T02:08:58.250Z,27.67
2022-10-13T02:11:26.863Z,28.53
2022-10-13T02:13:56.143Z,33.77
2022-10-13T02:16:24.591Z,29.40
2022-10-13T02:18:52.911Z,28.13
2022-10-13T02:21:22.871Z,26.87
2022-10-13T02:23:51.189Z,27.73
2022-10-13T02:26:19.631Z,32.83
2022-10-13T02:28:48.311Z,33.87
2022-10-13T02:31:16.891Z,33.57
2022-10-13T02:33:45.317Z,31.53
2022-10-13T02:36:13.865Z,34.57
2022-10-13T02:38:43.669Z,28.97
2022-10-13T02:41:12.354Z,33.70
2022-10-13T02:43:40.856Z,31.97
2022-10-13T02:46:09.205Z,32.40
2022-10-13T02:48:37.615Z,34.17
2022-10-13T02:51:06.110Z,32.30
2022-10-13T02:53:34.429Z,37.23
2022-10-13T02:56:04.343Z,32.20
2022-10-13T02:58:32.682Z,34.33
2022-10-13T03:01:06.981Z,31.73
2022-10-13T03:03:35.497Z,35.23
2022-10-13T03:06:03.920Z,31.10
2022-10-13T03:08:33.114Z,28.73
2022-10-13T03:11:01.434Z,32.43
2022-10-13T03:13:31.361Z,31.83
2022-10-13T03:15:59.738Z,31.13
2022-10-13T03:18:28.498Z,31.80
2022-10-13T03:20:57.790Z,33.70
2022-10-13T03:23:26.116Z,29.57
2022-10-13T03:25:54.444Z,28.37
2022-10-13T03:28:23.219Z,27.80
2022-10-13T03:30:53.021Z,35.97
2022-10-13T03:33:21.595Z,34.77
2022-10-13T03:35:50.148Z,32.57
2022-10-13T03:38:18.422Z,33.50
2022-10-13T03:40:46.754Z,30.60
2022-10-13T03:43:15.250Z,41.23
2022-10-13T03:45:43.619Z,31.90
2022-10-13T03:48:13.273Z,34.33
2022-10-13T03:50:41.727Z,36.83
2022-10-13T03:53:11.390Z,33.17
2022-10-13T03:55:40.037Z,39.93
2022-10-13T03:58:08.376Z,31.20
2022-10-13T04:00:37.075Z,38.87
2022-10-13T04:03:05.761Z,44.13
2022-10-13T04:05:37.500Z,39.20
2022-10-13T04:08:06.196Z,35.83
2022-10-13T04:10:34.690Z,40.00
2022-10-13T04:13:03.041Z,31.10
2022-10-13T04:15:31.545Z,40.00
2022-10-13T04:18:00.030Z,36.03
2022-10-13T04:20:28.330Z,36.60
2022-10-13T04:22:58.198Z,37.47
2022-10-13T04:25:26.491Z,37.27
2022-10-13T04:27:54.848Z,39.97
2022-10-13T04:30:23.183Z,44.47
2022-10-13T04:32:51.610Z,35.63
2022-10-13T04:35:20.025Z,34.87
2022-10-13T04:37:48.883Z,35.40
2022-10-13T04:40:19.119Z,39.53
2022-10-13T04:42:47.370Z,33.23
2022-10-13T04:45:15.704Z,33.07
2022-10-13T04:47:44.151Z,41.67
2022-10-13T04:50:12.649Z,34.17
2022-10-13T04:52:41.207Z,39.97
2022-10-13T04:55:10.290Z,39.03
2022-10-13T04:57:39.987Z,40.93
2022-10-13T05:00:09.507Z,34.27
2022-10-13T05:02:37.910Z,39.53
2022-10-13T05:05:06.700Z,40.50
2022-10-13T05:07:35.531Z,36.87
2022-10-13T05:10:03.892Z,35.67
2022-10-13T05:12:32.272Z,42.07
2022-10-13T05:15:02.189Z,38.90
2022-10-13T05:17:35.284Z,35.03
2022-10-13T05:20:03.737Z,37.93
2022-10-13T05:22:32.417Z,40.17
2022-10-13T05:25:00.676Z,39.97
2022-10-13T05:27:29.449Z,39.93
2022-10-13T05:29:57.838Z,46.00
2022-10-13T05:32:27.532Z,38.17
2022-10-13T05:34:56.210Z,37.67
2022-10-13T05:37:24.619Z,38.53
2022-10-13T05:39:52.926Z,36.00
2022-10-13T05:42:21.575Z,40.73
2022-10-13T05:44:50.274Z,39.03
2022-10-13T05:47:18.823Z,37.30
2022-10-13T05:49:48.561Z,32.03
2022-10-13T05:52:17.026Z,33.83
2022-10-13T05:54:46.780Z,37.33
2022-10-13T05:57:16.137Z,36.33
2022-10-13T05:59:45.366Z,37.77
2022-10-13T06:02:14.239Z,32.77
2022-10-13T06:04:42.979Z,35.23
2022-10-13T06:07:12.791Z,36.47
2022-10-13T06:09:43.988Z,31.20
2022-10-13T06:12:12.325Z,37.23
2022-10-13T06:14:40.664Z,36.03
2022-10-13T06:17:09.233Z,37.60
2022-10-13T06:19:37.579Z,42.73
2022-10-13T06:22:05.996Z,42.30
2022-10-13T06:24:36.018Z,36.13
2022-10-13T06:27:04.677Z,34.30
2022-10-13T06:29:33.425Z,36.10
2022-10-13T06:32:01.936Z,36.87
2022-10-13T06:34:30.467Z,34.60
2022-10-13T06:36:59.085Z,35.87
2022-10-13T06:39:32.763Z,30.07
2022-10-13T06:42:02.808Z,31.23
2022-10-13T06:44:32.429Z,32.03
2022-10-13T06:47:04.713Z,31.10
2022-10-13T06:49:33.489Z,37.33
2022-10-13T06:52:01.909Z,34.43
2022-10-13T06:54:30.743Z,34.73
2022-10-13T06:56:59.511Z,37.93
2022-10-13T06:59:34.536Z,30.87
2022-10-13T07:02:03.059Z,35.63
2022-10-13T07:04:31.554Z,37.20
2022-10-13T07:07:00.449Z,29.83
2022-10-13T07:09:29.263Z,29.33
2022-10-13T07:11:57.662Z,28.70
2022-10-13T07:14:30.910Z,28.87
2022-10-13T07:16:59.292Z,30.33
2022-10-13T07:19:28.097Z,31.27
2022-10-13T07:21:56.520Z,35.53
2022-10-13T07:24:25.247Z,29.40
2022-10-13T07:26:53.709Z,29.93
2022-10-13T07:29:21.992Z,27.60
2022-10-13T07:31:52.104Z,26.80
2022-10-13T07:34:20.376Z,26.83
2022-10-13T07:36:48.846Z,26.67
2022-10-13T07:39:17.224Z,29.17
2022-10-13T07:41:50.172Z,30.10
2022-10-13T07:44:19.683Z,30.13
2022-10-13T07:46:48.101Z,27.73
2022-10-13T07:49:18.080Z,25.97
2022-10-13T07:51:46.404Z,35.63
2022-10-13T07:54:14.796Z,27.10
2022-10-13T07:56:43.364Z,26.13
2022-10-13T07:59:11.689Z,21.47
2022-10-13T08:01:41.027Z,22.93
2022-10-13T08:04:09.526Z,29.93
2022-10-13T08:09:12.525Z,25.27
2022-10-13T08:11:40.883Z,21.70
2022-10-13T08:14:09.486Z,27.50
2022-10-13T08:16:39.970Z,22.83
2022-10-13T08:19:08.503Z,26.47
2022-10-13T08:21:57.743Z,30.10
2022-10-13T08:24:26.832Z,19.57
2022-10-13T08:26:55.334Z,27.17
2022-10-13T08:29:24.439Z,26.80
2022-10-13T08:31:53.595Z,23.43
2022-10-13T08:34:22.209Z,27.50
2022-10-13T08:36:52.974Z,23.33
2022-10-13T08:39:21.655Z,25.43
2022-10-13T08:41:51.389Z,25.13
2022-10-13T08:47:12.285Z,20.30
2022-10-13T08:49:41.643Z,21.80
2022-10-13T08:52:11.815Z,23.53
2022-10-13T08:54:40.269Z,20.73
2022-10-13T08:57:11.028Z,26.37
2022-10-13T08:59:39.397Z,24.27
2022-10-13T09:02:11.077Z,23.33
2022-10-13T09:04:41.948Z,33.90
2022-10-13T09:07:12.805Z,25.93
2022-10-13T09:09:41.287Z,28.97
2022-10-13T09:12:11.833Z,29.60
2022-10-13T09:14:40.552Z,31.63
2022-10-13T09:17:16.146Z,28.40
2022-10-13T09:19:44.839Z,34.23
2022-10-13T09:22:16.815Z,33.37
2022-10-13T09:24:45.203Z,36.90
2022-10-13T09:27:16.967Z,31.40
2022-10-13T09:29:45.400Z,47.07
2022-10-13T09:32:17.842Z,38.53
2022-10-13T09:34:46.480Z,43.93
2022-10-13T09:37:18.954Z,40.17
2022-10-13T09:39:47.219Z,38.63
2022-10-13T09:42:24.569Z,37.73
2022-10-13T09:45:03.263Z,38.43
2022-10-13T09:47:33.385Z,37.67
2022-10-13T09:50:06.563Z,37.07
2022-10-13T09:52:35.777Z,38.57
2022-10-13T09:55:04.173Z,30.00
2022-10-13T09:57:39.970Z,37.00
2022-10-13T10:00:15.660Z,34.70
2022-10-13T10:02:46.377Z,32.63
2022-10-13T10:05:20.490Z,35.37
2022-10-13T10:07:48.848Z,32.47
2022-10-13T10:10:18.802Z,36.20
2022-10-13T10:12:48.631Z,35.97
2022-10-13T10:15:18.808Z,29.57
2022-10-13T10:17:48.649Z,30.07
2022-10-13T10:20:20.078Z,34.30
2022-10-13T10:22:49.961Z,38.83
2022-10-13T10:25:25.423Z,40.07
2022-10-13T10:27:58.094Z,41.40
2022-10-13T10:30:26.532Z,32.23
2022-10-13T10:32:55.305Z,31.00
2022-10-13T10:35:26.725Z,27.87
2022-10-13T10:37:57.241Z,34.60
2022-10-13T10:40:28.944Z,37.90
2022-10-13T10:43:04.083Z,41.00
2022-10-13T10:45:33.420Z,33.70
2022-10-13T10:48:02.744Z,40.27
2022-10-13T10:50:31.650Z,41.30
2022-10-13T10:53:01.905Z,35.60
2022-10-13T10:55:31.841Z,45.83
2022-10-13T10:58:04.021Z,47.43
2022-10-13T11:00:32.547Z,47.13
2022-10-13T11:03:01.902Z,46.17
2022-10-13T11:05:33.161Z,54.00
2022-10-13T11:08:01.627Z,55.13
2022-10-13T11:10:30.471Z,48.33
2022-10-13T11:13:14.001Z,50.27
2022-10-13T11:15:43.046Z,49.30
2022-10-13T11:18:29.858Z,36.20
2022-10-13T11:20:59.644Z,43.87
2022-10-13T11:23:28.619Z,40.80
2022-10-13T11:25:56.918Z,32.87
2022-10-13T11:28:43.325Z,27.97
2022-10-13T11:31:35.974Z,39.90
2022-10-13T11:34:06.011Z,32.37
2022-10-13T11:36:39.650Z,32.63
2022-10-13T11:39:34.698Z,39.77
2022-10-13T11:42:05.031Z,33.03
2022-10-13T11:44:34.411Z,35.53
2022-10-13T11:47:04.445Z,32.63
2022-10-13T11:49:39.866Z,42.80
2022-10-13T11:52:14.315Z,40.33
2022-10-13T11:54:43.546Z,43.87
2022-10-13T11:57:19.421Z,37.43
2022-10-13T11:59:48.130Z,41.10
2022-10-13T12:02:19.271Z,41.47
2022-10-13T12:05:00.761Z,40.57
2022-10-13T12:07:30.229Z,44.23
2022-10-13T12:09:58.873Z,44.97
2022-10-13T12:12:27.739Z,38.87
2022-10-13T12:14:58.672Z,44.10
2022-10-13T12:17:31.359Z,38.87
2022-10-13T12:20:01.783Z,42.33
2022-10-13T12:22:30.616Z,40.83
2022-10-13T12:24:59.755Z,42.17
2022-10-13T12:27:28.544Z,40.87
2022-10-13T12:29:57.007Z,40.67
2022-10-13T12:32:26.758Z,40.80
2022-10-13T12:34:55.073Z,42.87
2022-10-13T12:37:28.654Z,40.27
2022-10-13T12:39:57.730Z,37.33
2022-10-13T12:42:27.295Z,37.10
2022-10-13T12:44:55.636Z,41.37
2022-10-13T12:47:40.202Z,45.03
2022-10-13T12:50:24.872Z,48.53
2022-10-13T12:52:54.827Z,42.13
2022-10-13T12:55:23.541Z,36.33
2022-10-13T12:57:52.249Z,37.67
2022-10-13T13:00:23.337Z,32.33
2022-10-13T13:02:52.254Z,34.20
2022-10-13T13:05:33.164Z,34.20
2022-10-13T13:08:02.968Z,12.83
2022-10-13T13:10:31.439Z,10.37
2022-10-13T13:13:01.720Z,9.53
2022-10-13T13:15:34.132Z,9.10
2022-10-13T13:18:21.113Z,9.20
2022-10-13T13:20:49.655Z,10.60
2022-10-13T13:23:20.213Z,4.33
2022-10-13T13:25:48.692Z,5.37
2022-10-13T13:28:19.970Z,6.23
2022-10-13T13:30:48.565Z,2.80
2022-10-13T13:33:16.976Z,4.67
2022-10-13T13:35:45.813Z,6.20
2022-10-13T13:38:14.431Z,3.50
2022-10-13T13:40:44.134Z,4.20
2022-10-13T13:43:12.951Z,3.17
2022-10-13T13:45:44.226Z,3.37
2022-10-13T13:48:13.153Z,3.63
2022-10-13T13:50:41.862Z,3.27
2022-10-13T13:53:12.676Z,3.53
2022-10-13T13:55:43.543Z,3.07
2022-10-13T13:58:16.012Z,5.43
2022-10-13T14:00:44.986Z,3.57
2022-10-13T14:03:18.483Z,3.23
2022-10-13T14:05:47.831Z,2.33
2022-10-13T14:08:16.342Z,2.43
2022-10-13T14:10:48.021Z,2.83
2022-10-13T14:13:31.176Z,2.60
2022-10-13T14:16:00.211Z,3.70
2022-10-13T14:18:31.687Z,5.07
2022-10-13T14:21:02.728Z,3.93
2022-10-13T14:23:34.211Z,4.40
2022-10-13T14:26:06.928Z,5.37
2022-10-13T14:28:38.490Z,5.43
2022-10-13T14:31:07.802Z,2.90
2022-10-13T14:33:38.228Z,4.53
2022-10-13T14:36:07.364Z,3.83
2022-10-13T14:38:35.909Z,2.70
2022-10-13T14:41:04.372Z,2.50
2022-10-13T14:43:32.722Z,2.33
2022-10-13T14:46:06.920Z,4.43
2022-10-13T14:48:35.348Z,2.90
2022-10-13T14:51:05.689Z,3.00
2022-10-13T14:53:34.572Z,2.90
2022-10-13T14:56:02.955Z,4.37
2022-10-13T14:58:34.096Z,2.97
2022-10-13T15:01:03.911Z,2.37
2022-10-13T15:03:32.310Z,3.23
2022-10-13T15:06:01.121Z,3.70
2022-10-13T15:08:29.513Z,4.37
2022-10-13T15:11:06.113Z,2.97
2022-10-13T15:13:34.569Z,3.73
2022-10-13T15:16:16.936Z,3.37
2022-10-13T15:18:45.309Z,3.83
2022-10-13T15:21:16.284Z,8.00
2022-10-13T15:23:44.694Z,6.07
2022-10-13T15:26:15.705Z,3.57
2022-10-13T15:28:44.804Z,2.53
2022-10-13T15:31:14.701Z,2.10
2022-10-13T15:33:45.409Z,2.37
2022-10-13T15:36:17.052Z,4.40
2022-10-13T15:38:47.417Z,3.57
2022-10-13T15:41:18.542Z,2.77
2022-10-13T15:43:52.956Z,3.30
2022-10-13T15:46:28.119Z,3.23
2022-10-13T15:49:00.017Z,3.77
2022-10-13T15:51:36.498Z,5.17
2022-10-13T15:54:05.037Z,8.03
2022-10-13T15:56:33.693Z,4.97
2022-10-13T15:59:02.162Z,4.27
2022-10-13T16:01:33.213Z,6.23
2022-10-13T16:04:04.053Z,5.27
2022-10-13T16:06:42.476Z,3.80
2022-10-13T16:09:10.829Z,5.03
2022-10-13T16:11:44.219Z,3.67
2022-10-13T16:14:14.748Z,3.17
2022-10-13T16:16:45.273Z,2.87
2022-10-13T16:19:15.242Z,3.47
2022-10-13T16:21:46.769Z,4.53
2022-10-13T16:24:17.309Z,3.67
2022-10-13T16:26:45.814Z,4.23
2022-10-13T16:29:16.659Z,3.83
2022-10-13T16:31:45.580Z,6.27
2022-10-13T16:34:17.355Z,6.03
2022-10-13T16:36:46.206Z,5.97
2022-10-13T16:39:16.677Z,6.13
2022-10-13T16:41:45.342Z,7.73
2022-10-13T16:44:13.721Z,4.27
2022-10-13T16:46:45.208Z,7.87
2022-10-13T16:49:18.180Z,5.27
2022-10-13T16:51:48.399Z,5.73
2022-10-13T16:54:20.057Z,5.90
2022-10-13T16:56:50.686Z,3.53
2022-10-13T16:59:22.256Z,4.77
2022-10-13T17:01:51.836Z,4.43
2022-10-13T17:04:22.378Z,3.90
2022-10-13T17:06:53.867Z,6.50
2022-10-13T17:09:22.524Z,4.90
2022-10-13T17:11:51.421Z,5.67
2022-10-13T17:14:20.411Z,5.13
2022-10-13T17:16:48.697Z,6.90
2022-10-13T17:19:17.043Z,6.33
2022-10-13T17:21:50.475Z,6.97
2022-10-13T17:24:19.026Z,8.77
2022-10-13T17:27:00.326Z,7.27
2022-10-13T17:29:28.912Z,6.47
2022-10-13T17:31:57.464Z,7.73
2022-10-13T17:34:25.935Z,8.03
2022-10-13T17:37:05.274Z,9.47
2022-10-13T17:39:36.379Z,11.07
2022-10-13T17:42:04.936Z,8.40
2022-10-13T17:44:33.795Z,10.03
2022-10-13T17:47:02.624Z,9.17
2022-10-13T17:49:31.311Z,11.63
2022-10-13T17:52:03.962Z,9.80
2022-10-13T17:54:32.280Z,8.60
2022-10-13T17:57:04.668Z,11.13
2022-10-13T17:59:33.337Z,10.13
2022-10-13T18:02:04.547Z,8.83
2022-10-13T18:04:33.106Z,12.93
2022-10-13T18:07:39.113Z,11.53
2022-10-13T18:13:45.598Z,11.03
2022-10-13T18:20:01.631Z,13.07
2022-10-13T18:26:18.393Z,13.57
2022-10-13T18:33:02.285Z,11.57
2022-10-13T18:40:01.303Z,12.03
2022-10-13T18:47:05.090Z,11.23
2022-10-13T18:49:48.795Z,12.43
2022-10-13T18:52:37.030Z,10.90
2022-10-13T18:55:10.614Z,11.33
2022-10-13T18:57:43.816Z,14.07
2022-10-13T19:00:15.790Z,15.13
2022-10-13T19:03:10.816Z,13.27
2022-10-13T19:05:40.302Z,15.83
2022-10-13T19:08:11.134Z,15.53
2022-10-13T19:10:40.543Z,16.73
2022-10-13T19:13:09.528Z,18.27
2022-10-13T19:15:40.642Z,16.43
2022-10-13T19:18:10.476Z,15.67
2022-10-13T19:20:50.325Z,14.23
2022-10-13T19:23:25.941Z,15.23
2022-10-13T19:25:54.330Z,13.83
2022-10-13T19:28:24.304Z,12.57
2022-10-13T19:31:13.842Z,14.50
2022-10-13T19:33:44.979Z,13.63
2022-10-13T19:36:13.869Z,11.50
2022-10-13T19:38:45.242Z,12.57
2022-10-13T19:41:20.074Z,13.27
2022-10-13T19:43:58.034Z,12.27
2022-10-13T19:46:32.106Z,13.20
2022-10-13T19:49:05.543Z,12.73
2022-10-13T19:51:58.945Z,13.23
2022-10-13T19:54:36.682Z,11.47
2022-10-13T19:57:12.396Z,13.00
2022-10-13T20:00:08.396Z,12.20
2022-10-13T20:02:55.539Z,12.63
2022-10-13T20:05:39.477Z,16.40
2022-10-13T20:08:30.395Z,19.00
2022-10-13T20:11:11.116Z,17.37
2022-10-13T20:13:43.552Z,15.67
2022-10-13T20:16:18.561Z,15.57
2022-10-13T20:18:55.541Z,17.20
2022-10-13T20:21:36.652Z,16.73
2022-10-13T20:24:15.526Z,18.80
2022-10-13T20:27:41.766Z,16.87
2022-10-13T20:30:54.086Z,16.97
2022-10-13T20:33:22.979Z,16.93
2022-10-13T20:35:56.376Z,15.83
2022-10-13T20:38:30.082Z,13.93
2022-10-13T20:41:08.159Z,15.67
2022-10-13T20:43:39.869Z,14.50
2022-10-13T20:46:08.792Z,15.07
2022-10-13T20:49:05.174Z,14.57
2022-10-13T20:51:36.191Z,16.07
2022-10-13T20:54:07.807Z,16.37
2022-10-13T20:56:41.120Z,15.43
2022-10-13T20:59:25.131Z,14.33
2022-10-13T21:01:56.566Z,13.43
2022-10-13T21:04:41.103Z,15.43
2022-10-13T21:07:36.090Z,17.33
2022-10-13T21:10:26.734Z,14.43
2022-10-13T21:12:58.860Z,14.93
2022-10-13T21:15:27.763Z,13.13
2022-10-13T21:17:58.386Z,14.80
2022-10-13T21:20:44.263Z,17.17
2022-10-13T21:23:15.345Z,13.63
2022-10-13T21:26:30.685Z,14.27
2022-10-13T21:29:28.403Z,16.00
2022-10-13T21:39:50.350Z,13.37
2022-10-13T21:49:06.089Z,15.77
2022-10-13T21:51:38.260Z,16.83
2022-10-13T21:54:09.574Z,18.47
2022-10-13T21:56:38.461Z,15.80
2022-10-13T21:59:17.335Z,15.93
2022-10-13T22:01:50.955Z,18.13
2022-10-13T22:07:05.475Z,16.20
2022-10-13T22:09:38.155Z,16.33
2022-10-13T22:12:09.158Z,18.70
2022-10-13T22:14:42.429Z,20.10
2022-10-13T22:17:13.518Z,17.27
2022-10-13T22:19:42.105Z,21.77
2022-10-13T22:22:14.905Z,18.33
2022-10-13T22:24:43.684Z,21.43
2022-10-13T22:27:12.281Z,23.73
2022-10-13T22:29:42.156Z,22.50
2022-10-13T22:32:13.801Z,20.57
2022-10-13T22:34:42.287Z,23.87
2022-10-13T22:37:11.326Z,26.07
2022-10-13T22:39:41.151Z,23.97
2022-10-13T22:42:12.276Z,27.50
2022-10-13T22:44:42.401Z,25.07
2022-10-13T22:47:10.969Z,29.13
2022-10-13T22:49:39.652Z,27.00
2022-10-13T22:52:13.783Z,26.57
2022-10-13T22:54:43.489Z,30.43
2022-10-13T22:57:12.162Z,33.60
2022-10-13T22:59:42.290Z,33.73
2022-10-13T23:02:10.972Z,34.30
2022-10-13T23:04:45.754Z,33.30
2022-10-13T23:07:14.298Z,33.90
2022-10-13T23:09:44.541Z,32.87
2022-10-13T23:12:19.811Z,35.17
2022-10-13T23:14:54.235Z,33.40
2022-10-13T23:17:39.136Z,33.10
2022-10-13T23:20:10.896Z,35.33
2022-10-13T23:22:41.932Z,36.87
2022-10-13T23:25:11.650Z,33.93
2022-10-13T23:27:40.342Z,32.57
2022-10-13T23:30:28.882Z,38.53
2022-10-13T23:33:11.301Z,33.03
2022-10-13T23:35:43.166Z,34.83
2022-10-13T23:38:12.881Z,33.73
2022-10-13T23:40:44.164Z,34.40
2022-10-13T23:43:12.637Z,37.47
2022-10-13T23:45:45.551Z,36.07
2022-10-13T23:48:16.967Z,37.80
2022-10-13T23:50:45.773Z,38.27
2022-10-13T23:53:14.546Z,38.70
2022-10-13T23:55:45.922Z,38.87
2022-10-13T23:58:16.670Z,43.40
